createdAt,value
2019-05-28T00:02:58.279Z,93.10
2019-05-28T00:07:01.267Z,93.20
2019-05-28T00:11:04.368Z,93.80
2019-05-28T00:15:07.625Z,93.60
2019-05-28T00:19:10.627Z,93.50
2019-05-28T00:23:13.623Z,93.50
2019-05-28T00:27:16.847Z,93.90
2019-05-28T00:31:19.855Z,94.10
2019-05-28T00:35:22.851Z,94.20
2019-05-28T00:39:25.860Z,93.70
2019-05-28T00:43:28.873Z,93.60
2019-05-28T00:47:32.091Z,93.60
2019-05-28T00:51:35.216Z,93.90
2019-05-28T00:55:38.731Z,93.70
2019-05-28T00:59:43.631Z,93.70
2019-05-28T01:03:46.749Z,93.70
2019-05-28T01:07:49.767Z,93.70
2019-05-28T01:11:52.784Z,93.60
2019-05-28T01:15:55.792Z,93.60
2019-05-28T01:19:58.818Z,93.30
2019-05-28T01:24:01.923Z,93.20
2019-05-28T01:28:06.319Z,93.20
2019-05-28T01:32:09.331Z,93.10
2019-05-28T01:36:12.378Z,92.80
2019-05-28T01:40:15.716Z,92.90
2019-05-28T01:44:18.797Z,92.90
2019-05-28T01:48:21.980Z,93.20
2019-05-28T01:52:24.988Z,93.50
2019-05-28T01:56:28.187Z,93.80
2019-05-28T02:00:31.200Z,93.80
2019-05-28T02:04:34.203Z,94.00
2019-05-28T02:08:37.415Z,93.80
2019-05-28T02:12:40.465Z,93.60
2019-05-28T02:16:43.487Z,93.80
2019-05-28T02:20:46.504Z,93.60
2019-05-28T02:24:49.497Z,93.40
2019-05-28T02:28:54.360Z,93.20
2019-05-28T02:32:57.382Z,93.00
2019-05-28T02:37:00.388Z,92.80
2019-05-28T02:41:03.591Z,92.70
2019-05-28T02:45:08.364Z,92.80
2019-05-28T02:49:11.370Z,93.00
2019-05-28T02:53:14.770Z,93.30
2019-05-28T02:57:17.887Z,93.60
2019-05-28T03:01:22.382Z,93.50
2019-05-28T03:05:27.689Z,93.50
2019-05-28T03:09:30.902Z,93.50
2019-05-28T03:13:33.907Z,93.40
2019-05-28T03:17:39.163Z,93.30
2019-05-28T03:21:43.663Z,93.40
2019-05-28T03:25:46.749Z,93.40
2019-05-28T03:29:49.958Z,92.90
2019-05-28T03:33:53.056Z,93.20
2019-05-28T03:37:56.983Z,93.70
2019-05-28T03:42:00.188Z,93.80
2019-05-28T03:46:03.293Z,93.70
2019-05-28T03:50:06.788Z,93.70
2019-05-28T03:54:09.904Z,93.60
2019-05-28T03:58:13.155Z,93.60
2019-05-28T04:02:23.529Z,93.50
2019-05-28T04:06:21.093Z,93.70
2019-05-28T04:10:24.099Z,93.60
2019-05-28T04:14:27.121Z,93.30
2019-05-28T04:18:28.213Z,93.30
2019-05-28T04:22:31.448Z,93.40
2019-05-28T04:26:32.721Z,92.80
2019-05-28T04:30:36.046Z,93.30
2019-05-28T04:34:39.049Z,93.10
2019-05-28T04:38:42.074Z,93.10
2019-05-28T04:42:45.085Z,93.20
2019-05-28T04:46:48.088Z,93.20
2019-05-28T04:50:51.279Z,92.80
2019-05-28T04:54:54.449Z,92.90
2019-05-28T04:58:57.451Z,93.10
2019-05-28T05:03:00.985Z,93.30
2019-05-28T05:07:04.285Z,93.30
2019-05-28T05:11:07.301Z,93.50
2019-05-28T05:15:10.916Z,94.00
2019-05-28T05:19:14.134Z,94.10
2019-05-28T05:23:17.372Z,94.20
2019-05-28T05:27:20.377Z,94.30
2019-05-28T05:31:24.215Z,94.20
2019-05-28T05:35:27.227Z,94.20
2019-05-28T05:39:30.240Z,93.90
2019-05-28T05:43:33.357Z,93.80
2019-05-28T05:47:36.370Z,93.80
2019-05-28T05:51:39.415Z,93.60
2019-05-28T05:55:42.474Z,93.20
2019-05-28T05:59:45.548Z,93.70
2019-05-28T06:03:48.649Z,93.50
2019-05-28T06:07:51.696Z,93.60
2019-05-28T06:11:54.850Z,93.20
2019-05-28T06:15:57.851Z,93.10
2019-05-28T06:20:00.875Z,93.20
2019-05-28T06:24:04.052Z,93.10
2019-05-28T06:28:07.063Z,93.40
2019-05-28T06:32:11.372Z,93.10
2019-05-28T06:36:14.400Z,93.40
2019-05-28T06:40:17.915Z,93.70
2019-05-28T06:44:20.933Z,93.90
2019-05-28T06:48:23.987Z,93.90
2019-05-28T06:52:26.999Z,93.70
2019-05-28T06:56:30.011Z,94.00
2019-05-28T07:00:33.163Z,93.80
2019-05-28T07:04:36.175Z,93.50
2019-05-28T07:08:39.179Z,93.30
2019-05-28T07:12:42.515Z,93.20
2019-05-28T07:16:53.140Z,93.20
2019-05-28T07:20:50.532Z,92.80
2019-05-28T07:24:53.635Z,92.50
2019-05-28T07:28:56.720Z,92.90
2019-05-28T07:33:01.504Z,92.90
2019-05-28T07:37:04.521Z,92.60
2019-05-28T07:41:07.531Z,92.70
2019-05-28T07:45:11.243Z,92.80
2019-05-28T07:49:14.453Z,92.50
2019-05-28T07:53:17.594Z,92.30
2019-05-28T07:57:20.601Z,92.60
2019-05-28T08:01:23.610Z,91.60
2019-05-28T08:05:26.612Z,91.70
2019-05-28T08:09:29.625Z,91.70
2019-05-28T08:13:40.842Z,90.60
2019-05-28T08:17:37.655Z,90.50
2019-05-28T08:21:40.767Z,88.60
2019-05-28T08:25:47.505Z,90.00
2019-05-28T08:29:48.864Z,90.50
2019-05-28T08:33:53.263Z,88.10
2019-05-28T08:37:56.261Z,88.60
2019-05-28T08:41:59.273Z,87.70
2019-05-28T08:46:02.579Z,87.20
2019-05-28T08:50:05.688Z,84.10
2019-05-28T08:54:08.707Z,83.40
2019-05-28T08:58:12.632Z,82.10
2019-05-28T09:02:27.297Z,83.60
2019-05-28T09:06:24.546Z,82.80
2019-05-28T09:10:25.807Z,83.40
2019-05-28T09:14:26.857Z,82.30
2019-05-28T09:18:29.374Z,79.60
2019-05-28T09:22:30.476Z,81.90
2019-05-28T09:26:31.485Z,81.10
2019-05-28T09:30:32.519Z,81.00
2019-05-28T09:34:34.614Z,80.00
2019-05-28T09:38:37.622Z,79.30
2019-05-28T09:42:40.673Z,79.60
2019-05-28T09:46:43.672Z,78.70
2019-05-28T09:50:46.694Z,77.40
2019-05-28T09:54:49.714Z,74.00
2019-05-28T09:58:52.711Z,76.50
2019-05-28T10:02:55.730Z,74.70
2019-05-28T10:06:58.768Z,76.00
2019-05-28T10:11:01.859Z,76.00
2019-05-28T10:15:05.821Z,76.90
2019-05-28T10:19:08.839Z,74.50
2019-05-28T10:23:11.984Z,74.80
2019-05-28T10:27:14.959Z,74.00
2019-05-28T10:31:17.987Z,66.20
2019-05-28T10:35:21.972Z,65.20
2019-05-28T10:39:25.030Z,65.10
2019-05-28T10:43:28.522Z,61.20
2019-05-28T10:47:31.608Z,55.90
2019-05-28T10:51:34.688Z,57.80
2019-05-28T10:55:37.729Z,56.20
2019-05-28T10:59:40.736Z,53.60
2019-05-28T11:03:46.971Z,57.20
2019-05-28T11:07:48.748Z,54.20
2019-05-28T11:11:51.878Z,54.10
2019-05-28T11:15:54.967Z,53.20
2019-05-28T11:19:57.955Z,50.80
2019-05-28T11:24:01.048Z,52.60
2019-05-28T11:28:04.059Z,52.70
2019-05-28T11:32:07.207Z,49.80
2019-05-28T11:36:11.899Z,53.30
2019-05-28T11:40:15.434Z,51.00
2019-05-28T11:44:18.431Z,52.30
2019-05-28T11:48:21.492Z,60.20
2019-05-28T11:52:24.540Z,60.10
2019-05-28T11:56:27.545Z,59.80
2019-05-28T12:00:31.201Z,59.70
2019-05-28T12:04:34.272Z,59.90
2019-05-28T12:08:37.307Z,59.80
2019-05-28T12:12:40.317Z,62.30
2019-05-28T12:16:43.398Z,64.70
2019-05-28T12:20:46.496Z,65.90
2019-05-28T12:24:49.557Z,65.40
2019-05-28T12:28:52.692Z,62.20
2019-05-28T12:32:55.687Z,57.20
2019-05-28T12:36:59.723Z,54.30
2019-05-28T12:41:03.135Z,52.60
2019-05-28T12:45:10.480Z,48.40
2019-05-28T12:49:13.691Z,46.80
2019-05-28T12:53:16.795Z,50.20
2019-05-28T12:57:19.843Z,51.50
2019-05-28T13:01:22.958Z,47.50
2019-05-28T13:05:27.107Z,50.40
2019-05-28T13:09:30.281Z,51.80
2019-05-28T13:13:34.295Z,50.70
2019-05-28T13:17:37.300Z,49.30
2019-05-28T13:21:40.305Z,48.00
2019-05-28T13:25:43.379Z,49.00
2019-05-28T13:29:46.395Z,50.70
2019-05-28T13:33:49.424Z,50.40
2019-05-28T13:37:53.752Z,51.20
2019-05-28T13:41:56.765Z,51.00
2019-05-28T13:45:59.872Z,46.80
2019-05-28T13:50:07.904Z,46.10
2019-05-28T13:54:10.925Z,44.60
2019-05-28T13:58:13.944Z,46.00
2019-05-28T14:02:17.047Z,50.80
2019-05-28T14:06:20.108Z,51.10
2019-05-28T14:10:23.121Z,45.20
2019-05-28T14:14:26.333Z,50.20
2019-05-28T14:18:29.333Z,49.60
2019-05-28T14:22:34.295Z,47.70
2019-05-28T14:26:37.673Z,49.00
2019-05-28T14:30:56.470Z,51.00
2019-05-28T14:34:46.260Z,53.00
2019-05-28T14:39:02.720Z,51.60
2019-05-28T14:42:54.473Z,56.30
2019-05-28T14:46:57.494Z,58.60
2019-05-28T14:51:00.732Z,58.40
2019-05-28T14:55:08.411Z,59.90
2019-05-28T14:59:11.586Z,58.90
2019-05-28T15:03:14.628Z,57.90
2019-05-28T15:07:17.669Z,57.90
2019-05-28T15:11:20.774Z,58.00
2019-05-28T15:15:35.253Z,58.40
2019-05-28T15:19:28.875Z,58.60
2019-05-28T15:23:32.123Z,56.80
2019-05-28T15:27:35.584Z,57.60
2019-05-28T15:31:38.749Z,57.80
2019-05-28T15:35:41.768Z,57.00
2019-05-28T15:39:47.345Z,57.50
2019-05-28T15:43:50.366Z,57.90
2019-05-28T15:47:53.592Z,56.70
2019-05-28T15:52:07.256Z,56.70
2019-05-28T15:56:01.808Z,57.50
2019-05-28T16:00:10.102Z,57.00
2019-05-28T16:04:13.104Z,58.60
2019-05-28T16:08:16.109Z,61.50
2019-05-28T16:12:19.175Z,55.40
2019-05-28T16:16:22.271Z,54.80
2019-05-28T16:20:25.309Z,54.40
2019-05-28T16:24:28.356Z,55.60
2019-05-28T16:28:31.505Z,56.10
2019-05-28T16:32:34.576Z,54.50
2019-05-28T16:36:37.656Z,54.90
2019-05-28T16:40:42.640Z,54.50
2019-05-28T16:44:45.799Z,55.60
2019-05-28T16:48:48.895Z,53.00
2019-05-28T16:52:52.039Z,53.50
2019-05-28T16:56:55.057Z,59.60
2019-05-28T17:01:04.706Z,66.90
2019-05-28T17:05:04.934Z,68.40
2019-05-28T17:09:07.958Z,68.60
2019-05-28T17:13:11.012Z,69.30
2019-05-28T17:17:14.114Z,69.80
2019-05-28T17:21:17.180Z,71.10
2019-05-28T17:25:20.284Z,73.40
2019-05-28T17:29:23.298Z,71.90
2019-05-28T17:33:26.407Z,72.20
2019-05-28T17:37:29.441Z,73.10
2019-05-28T17:41:33.867Z,73.50
2019-05-28T17:45:36.921Z,73.60
2019-05-28T17:49:39.948Z,73.00
2019-05-28T17:53:43.095Z,73.10
2019-05-28T17:57:46.100Z,72.30
2019-05-28T18:01:49.231Z,73.00
2019-05-28T18:05:52.626Z,73.60
2019-05-28T18:09:55.734Z,73.60
2019-05-28T18:13:58.831Z,74.80
2019-05-28T18:18:02.193Z,74.30
2019-05-28T18:22:05.218Z,75.10
2019-05-28T18:26:08.381Z,75.60
2019-05-28T18:30:12.236Z,75.20
2019-05-28T18:34:15.252Z,74.90
2019-05-28T18:38:18.299Z,74.60
2019-05-28T18:42:23.142Z,75.30
2019-05-28T18:46:26.308Z,74.40
2019-05-28T18:50:29.320Z,74.30
2019-05-28T18:54:32.427Z,75.20
2019-05-28T18:58:35.891Z,73.70
2019-05-28T19:02:39.191Z,75.40
2019-05-28T19:06:42.427Z,75.20
2019-05-28T19:10:45.471Z,75.40
2019-05-28T19:14:48.629Z,74.50
2019-05-28T19:18:51.715Z,76.00
2019-05-28T19:22:54.808Z,77.20
2019-05-28T19:26:57.967Z,77.60
2019-05-28T19:31:01.262Z,78.60
2019-05-28T19:35:07.790Z,78.70
2019-05-28T19:39:10.269Z,78.90
2019-05-28T19:43:14.570Z,78.90
2019-05-28T19:47:17.600Z,79.80
2019-05-28T19:51:20.797Z,80.70
2019-05-28T19:55:24.180Z,80.80
2019-05-28T19:59:27.315Z,81.60
2019-05-28T20:03:30.400Z,81.60
2019-05-28T20:07:33.414Z,81.50
2019-05-28T20:11:36.644Z,82.10
2019-05-28T20:15:39.667Z,81.90
2019-05-28T20:19:42.822Z,81.50
2019-05-28T20:23:45.867Z,81.50
2019-05-28T20:27:49.674Z,78.70
2019-05-28T20:31:52.940Z,78.50
2019-05-28T20:35:55.961Z,76.70
2019-05-28T20:39:59.775Z,76.70
2019-05-28T20:44:04.266Z,76.40
2019-05-28T20:48:08.672Z,76.20
2019-05-28T20:52:11.880Z,76.10
2019-05-28T20:56:14.993Z,76.30
2019-05-28T21:00:18.723Z,76.70
2019-05-28T21:04:21.739Z,76.50
2019-05-28T21:08:24.738Z,76.60
2019-05-28T21:12:42.770Z,77.00
2019-05-28T21:16:32.779Z,77.10
2019-05-28T21:20:35.846Z,77.30
2019-05-28T21:24:38.856Z,77.70
2019-05-28T21:28:41.872Z,77.80
2019-05-28T21:32:44.889Z,78.60
2019-05-28T21:36:47.896Z,78.60
2019-05-28T21:40:51.538Z,78.80
2019-05-28T21:44:56.333Z,79.60
2019-05-28T21:48:59.353Z,80.80
2019-05-28T21:53:03.224Z,80.60
2019-05-28T21:57:06.494Z,80.00
2019-05-28T22:01:16.154Z,78.90
2019-05-28T22:05:19.150Z,78.60
2019-05-28T22:09:22.159Z,78.50
2019-05-28T22:13:25.173Z,79.20
2019-05-28T22:17:28.166Z,79.00
2019-05-28T22:21:31.175Z,79.40
2019-05-28T22:25:34.186Z,79.50
2019-05-28T22:29:37.270Z,79.70
2019-05-28T22:33:40.287Z,79.80
2019-05-28T22:37:43.294Z,80.10
2019-05-28T22:41:46.307Z,80.20
2019-05-28T22:45:49.583Z,80.40
2019-05-28T22:49:52.601Z,80.30
2019-05-28T22:53:55.614Z,80.30
2019-05-28T22:57:58.636Z,80.50
2019-05-28T23:02:02.754Z,80.60
2019-05-28T23:06:05.882Z,81.00
2019-05-28T23:10:09.898Z,81.20
2019-05-28T23:14:12.997Z,81.40
2019-05-28T23:18:16.012Z,81.60
2019-05-28T23:22:19.025Z,82.00
2019-05-28T23:26:22.039Z,81.90
2019-05-28T23:30:25.625Z,82.20
2019-05-28T23:34:28.949Z,82.70
2019-05-28T23:38:31.963Z,82.90
2019-05-28T23:42:34.980Z,83.40
2019-05-28T23:46:38.900Z,83.60
2019-05-28T23:50:41.922Z,84.10
2019-05-28T23:54:45.055Z,84.60
2019-05-28T23:58:48.054Z,84.50
